createdAt,value
2023-03-10T04:30:48.770Z,9.80
2023-03-10T04:41:26.951Z,9.80
2023-03-10T04:52:02.708Z,9.80
2023-03-10T05:02:40.390Z,9.80
2023-03-10T05:13:16.244Z,9.80
2023-03-10T05:23:52.865Z,9.70
2023-03-10T05:34:30.792Z,9.70
2023-03-10T05:45:10.933Z,9.60
2023-03-10T05:55:47.464Z,9.60
2023-03-10T06:06:24.484Z,9.50
2023-03-10T06:16:51.147Z,9.70
2023-03-10T06:27:07.074Z,9.90
2023-03-10T06:37:22.953Z,10.00
2023-03-10T06:47:38.708Z,10.00
2023-03-10T06:57:54.700Z,10.10
2023-03-10T07:08:10.423Z,10.10
2023-03-10T07:18:29.615Z,10.40
2023-03-10T07:28:45.889Z,10.60
2023-03-10T07:39:01.816Z,10.80
2023-03-10T07:49:18.559Z,11.10
2023-03-10T07:59:35.677Z,10.80
2023-03-10T08:09:52.458Z,10.70
2023-03-10T08:20:10.366Z,10.60
2023-03-10T08:30:26.267Z,10.30
2023-03-10T08:40:42.014Z,10.20
2023-03-10T08:50:58.331Z,10.10
2023-03-10T09:01:15.922Z,10.20
2023-03-10T09:11:36.438Z,10.50
2023-03-10T09:21:55.362Z,10.20
2023-03-10T09:32:11.543Z,10.60
2023-03-10T09:42:39.593Z,10.30
2023-03-10T09:53:17.421Z,10.40
2023-03-10T10:03:50.075Z,10.30
2023-03-10T10:14:29.443Z,10.10
2023-03-10T10:25:22.798Z,10.10
2023-03-10T10:35:41.149Z,9.80
2023-03-10T10:46:09.121Z,9.70
2023-03-10T10:56:28.459Z,9.90
2023-03-10T11:06:44.702Z,9.80
2023-03-10T11:17:14.182Z,10.00
2023-03-10T11:27:56.206Z,10.00
2023-03-10T11:38:23.569Z,10.20
2023-03-10T11:48:48.462Z,10.40
2023-03-10T11:59:12.879Z,10.70
2023-03-10T12:09:43.753Z,10.50
2023-03-10T12:20:24.833Z,10.50
2023-03-10T12:31:00.573Z,10.40
2023-03-10T12:41:53.199Z,10.40
2023-03-10T12:52:40.773Z,10.20
2023-03-10T13:03:14.604Z,9.90
2023-03-10T13:13:34.718Z,9.80
2023-03-10T13:23:50.363Z,9.60
2023-03-10T13:34:14.090Z,9.50
2023-03-10T13:44:37.541Z,9.40
2023-03-10T13:55:14.727Z,9.40
2023-03-10T14:05:45.562Z,9.40
2023-03-10T14:16:01.961Z,9.20
2023-03-10T14:26:17.784Z,9.30
2023-03-10T14:36:33.439Z,9.80
2023-03-10T14:46:53.037Z,10.00
2023-03-10T14:57:09.630Z,10.10
2023-03-10T15:07:25.548Z,10.00
2023-03-10T15:17:41.449Z,9.80
2023-03-10T15:27:57.402Z,9.60
2023-03-10T15:38:14.799Z,9.50
2023-03-10T15:48:30.465Z,9.10
2023-03-10T15:58:46.416Z,8.90
2023-03-10T16:09:01.811Z,8.80
2023-03-10T16:19:17.905Z,8.60
2023-03-10T16:29:33.887Z,8.40
2023-03-10T16:39:53.484Z,8.60
2023-03-10T16:50:12.463Z,8.40
2023-03-10T17:00:28.363Z,8.30
2023-03-10T17:10:44.372Z,8.10
2023-03-10T17:21:10.980Z,8.10
2023-03-10T17:31:27.909Z,8.20
2023-03-10T17:41:43.896Z,7.90
2023-03-10T17:52:00.200Z,7.60
2023-03-10T18:02:15.931Z,7.30
2023-03-10T18:12:32.176Z,7.30
2023-03-10T18:22:48.109Z,7.20
2023-03-10T18:33:03.983Z,7.20
2023-03-10T18:43:19.842Z,7.10
2023-03-10T18:53:35.200Z,6.50
2023-03-10T19:03:50.583Z,5.60
2023-03-10T19:14:07.178Z,5.20
2023-03-10T19:24:22.584Z,5.10
2023-03-10T19:34:38.589Z,4.90
2023-03-10T19:44:54.189Z,4.70
2023-03-10T19:55:14.366Z,4.50
2023-03-10T20:05:30.449Z,4.30
2023-03-10T20:15:49.077Z,4.10
2023-03-10T20:26:07.540Z,4.00
2023-03-10T20:36:23.638Z,3.90
2023-03-10T20:46:38.938Z,3.90
2023-03-10T20:56:54.900Z,3.80
2023-03-10T21:07:10.812Z,3.70
2023-03-10T21:17:27.872Z,3.70
2023-03-10T21:27:47.767Z,3.70
2023-03-10T21:38:03.180Z,3.70
2023-03-10T21:48:39.009Z,3.70
2023-03-10T21:59:14.725Z,3.60
2023-03-10T22:09:50.168Z,3.50
2023-03-10T22:20:27.429Z,3.40
